Terminal Aerodrome Forecast
Issued by NWS

Home | Current Version | Previous Version | Text Only | Print | Product List | Glossary On
Versions: 1 2 3 4 5 6 7 8 9 10 11 12 13 14 15 16 17 18 19 20
000
FTUS43 KDTX 230500
TAFDET
TAF
KDET 230527Z 2306/2406 04005KT P6SM BKN050
     FM230900 04003KT 3SM BR BKN005 OVC070
     FM231400 07007KT P6SM SCT020
     FM231600 09007KT P6SM SCT050
     FM232300 12005KT P6SM SCT070=

USA.gov is the U.S. government's official web portal to all federal, state and local government web resources and services.